sensor_id;sensor_type;location;lat;lon;timestamp;P1;durP1;ratioP1;P2;durP2;ratioP2
32533;SDS011;18973;48.580;8.912;2023-05-16T00:02:09;9.20;;;6.28;;
32533;SDS011;18973;48.580;8.912;2023-05-16T00:04:34;8.15;;;6.68;;
32533;SDS011;18973;48.580;8.912;2023-05-16T00:07:00;7.60;;;5.88;;
32533;SDS011;18973;48.580;8.912;2023-05-16T00:09:26;9.80;;;6.35;;
32533;SDS011;18973;48.580;8.912;2023-05-16T00:11:52;6.60;;;5.88;;
32533;SDS011;18973;48.580;8.912;2023-05-16T00:14:17;8.32;;;5.85;;
32533;SDS011;18973;48.580;8.912;2023-05-16T00:16:43;9.38;;;7.13;;
32533;SDS011;18973;48.580;8.912;2023-05-16T00:19:11;9.85;;;7.78;;
32533;SDS011;18973;48.580;8.912;2023-05-16T00:21:37;10.68;;;7.32;;
32533;SDS011;18973;48.580;8.912;2023-05-16T00:24:03;9.27;;;6.88;;
32533;SDS011;18973;48.580;8.912;2023-05-16T00:26:29;8.93;;;7.68;;
32533;SDS011;18973;48.580;8.912;2023-05-16T00:28:55;9.40;;;7.07;;
32533;SDS011;18973;48.580;8.912;2023-05-16T00:31:21;8.35;;;7.07;;
32533;SDS011;18973;48.580;8.912;2023-05-16T00:33:47;15.65;;;8.27;;
32533;SDS011;18973;48.580;8.912;2023-05-16T00:36:12;12.80;;;7.78;;
32533;SDS011;18973;48.580;8.912;2023-05-16T00:38:38;9.10;;;7.20;;
32533;SDS011;18973;48.580;8.912;2023-05-16T00:41:04;11.32;;;8.18;;
32533;SDS011;18973;48.580;8.912;2023-05-16T00:43:29;11.88;;;7.43;;
32533;SDS011;18973;48.580;8.912;2023-05-16T00:45:55;11.48;;;8.05;;
32533;SDS011;18973;48.580;8.912;2023-05-16T00:48:21;11.07;;;7.75;;
32533;SDS011;18973;48.580;8.912;2023-05-16T00:50:47;10.10;;;8.88;;
32533;SDS011;18973;48.580;8.912;2023-05-16T00:53:13;13.93;;;9.50;;
32533;SDS011;18973;48.580;8.912;2023-05-16T00:55:39;18.23;;;13.20;;
32533;SDS011;18973;48.580;8.912;2023-05-16T00:58:05;20.83;;;15.30;;
32533;SDS011;18973;48.580;8.912;2023-05-16T01:00:31;18.58;;;15.02;;
32533;SDS011;18973;48.580;8.912;2023-05-16T01:02:57;24.80;;;15.43;;
32533;SDS011;18973;48.580;8.912;2023-05-16T01:05:22;25.38;;;12.43;;
32533;SDS011;18973;48.580;8.912;2023-05-16T01:07:48;17.75;;;12.65;;
32533;SDS011;18973;48.580;8.912;2023-05-16T01:10:14;13.43;;;11.43;;
32533;SDS011;18973;48.580;8.912;2023-05-16T01:15:46;16.80;;;9.85;;
32533;SDS011;18973;48.580;8.912;2023-05-16T01:21:27;9.63;;;8.25;;
32533;SDS011;18973;48.580;8.912;2023-05-16T01:24:12;11.85;;;9.27;;
32533;SDS011;18973;48.580;8.912;2023-05-16T01:26:46;14.95;;;9.18;;
32533;SDS011;18973;48.580;8.912;2023-05-16T01:29:14;13.32;;;10.32;;
32533;SDS011;18973;48.580;8.912;2023-05-16T01:31:40;38.60;;;21.00;;
32533;SDS011;18973;48.580;8.912;2023-05-16T01:34:05;34.58;;;22.92;;
32533;SDS011;18973;48.580;8.912;2023-05-16T01:36:40;38.25;;;26.52;;
32533;SDS011;18973;48.580;8.912;2023-05-16T01:41:54;39.72;;;28.55;;
32533;SDS011;18973;48.580;8.912;2023-05-16T01:44:31;41.85;;;28.23;;
32533;SDS011;18973;48.580;8.912;2023-05-16T01:47:10;44.22;;;29.45;;
32533;SDS011;18973;48.580;8.912;2023-05-16T01:52:28;42.10;;;29.90;;
32533;SDS011;18973;48.580;8.912;2023-05-16T01:55:05;41.40;;;28.35;;
32533;SDS011;18973;48.580;8.912;2023-05-16T01:57:36;44.75;;;29.73;;
32533;SDS011;18973;48.580;8.912;2023-05-16T02:00:04;45.33;;;31.02;;
32533;SDS011;18973;48.580;8.912;2023-05-16T02:02:30;47.97;;;30.45;;
32533;SDS011;18973;48.580;8.912;2023-05-16T02:04:56;52.08;;;31.45;;
32533;SDS011;18973;48.580;8.912;2023-05-16T02:07:22;50.75;;;31.02;;
32533;SDS011;18973;48.580;8.912;2023-05-16T02:09:48;49.72;;;31.83;;
32533;SDS011;18973;48.580;8.912;2023-05-16T02:12:13;51.78;;;31.45;;
32533;SDS011;18973;48.580;8.912;2023-05-16T02:14:40;48.50;;;30.35;;
32533;SDS011;18973;48.580;8.912;2023-05-16T02:17:06;50.08;;;30.77;;
32533;SDS011;18973;48.580;8.912;2023-05-16T02:19:31;47.10;;;32.17;;
32533;SDS011;18973;48.580;8.912;2023-05-16T02:21:57;54.35;;;33.45;;
32533;SDS011;18973;48.580;8.912;2023-05-16T02:24:23;51.55;;;32.75;;
32533;SDS011;18973;48.580;8.912;2023-05-16T02:26:48;53.67;;;33.88;;
32533;SDS011;18973;48.580;8.912;2023-05-16T02:29:14;55.33;;;32.40;;
32533;SDS011;18973;48.580;8.912;2023-05-16T02:31:40;55.97;;;34.08;;
32533;SDS011;18973;48.580;8.912;2023-05-16T02:34:07;55.33;;;34.28;;
32533;SDS011;18973;48.580;8.912;2023-05-16T02:36:33;58.35;;;33.33;;
32533;SDS011;18973;48.580;8.912;2023-05-16T02:39:00;58.40;;;35.95;;
32533;SDS011;18973;48.580;8.912;2023-05-16T02:41:27;61.65;;;35.05;;
32533;SDS011;18973;48.580;8.912;2023-05-16T02:43:53;58.00;;;35.50;;
32533;SDS011;18973;48.580;8.912;2023-05-16T02:46:29;57.85;;;36.33;;
32533;SDS011;18973;48.580;8.912;2023-05-16T02:48:57;59.42;;;35.83;;
32533;SDS011;18973;48.580;8.912;2023-05-16T02:51:24;65.00;;;35.60;;
32533;SDS011;18973;48.580;8.912;2023-05-16T02:53:51;58.60;;;35.80;;
32533;SDS011;18973;48.580;8.912;2023-05-16T02:56:18;60.42;;;37.55;;
32533;SDS011;18973;48.580;8.912;2023-05-16T02:58:45;64.82;;;37.45;;
32533;SDS011;18973;48.580;8.912;2023-05-16T03:01:12;66.63;;;37.38;;
32533;SDS011;18973;48.580;8.912;2023-05-16T03:03:38;64.68;;;37.33;;
32533;SDS011;18973;48.580;8.912;2023-05-16T03:06:04;58.85;;;36.35;;
32533;SDS011;18973;48.580;8.912;2023-05-16T03:08:30;61.13;;;37.25;;
32533;SDS011;18973;48.580;8.912;2023-05-16T03:10:56;63.72;;;37.63;;
32533;SDS011;18973;48.580;8.912;2023-05-16T03:13:22;66.60;;;38.60;;
32533;SDS011;18973;48.580;8.912;2023-05-16T03:15:47;64.55;;;39.20;;
32533;SDS011;18973;48.580;8.912;2023-05-16T03:18:13;61.95;;;39.10;;
32533;SDS011;18973;48.580;8.912;2023-05-16T03:20:39;62.25;;;38.63;;
32533;SDS011;18973;48.580;8.912;2023-05-16T03:23:05;64.50;;;38.00;;
32533;SDS011;18973;48.580;8.912;2023-05-16T03:25:32;68.30;;;38.50;;
32533;SDS011;18973;48.580;8.912;2023-05-16T03:28:00;68.80;;;41.28;;
32533;SDS011;18973;48.580;8.912;2023-05-16T03:30:26;65.93;;;38.80;;
32533;SDS011;18973;48.580;8.912;2023-05-16T03:32:52;76.25;;;41.97;;
32533;SDS011;18973;48.580;8.912;2023-05-16T03:35:18;68.65;;;41.35;;
32533;SDS011;18973;48.580;8.912;2023-05-16T03:37:43;67.53;;;38.88;;
32533;SDS011;18973;48.580;8.912;2023-05-16T03:40:09;69.72;;;41.40;;
32533;SDS011;18973;48.580;8.912;2023-05-16T03:42:35;74.05;;;42.55;;
32533;SDS011;18973;48.580;8.912;2023-05-16T03:45:01;78.40;;;44.45;;
32533;SDS011;18973;48.580;8.912;2023-05-16T03:47:29;69.82;;;40.80;;
32533;SDS011;18973;48.580;8.912;2023-05-16T03:49:55;72.70;;;42.03;;
32533;SDS011;18973;48.580;8.912;2023-05-16T03:52:21;73.43;;;41.90;;
32533;SDS011;18973;48.580;8.912;2023-05-16T03:54:47;78.32;;;42.30;;
32533;SDS011;18973;48.580;8.912;2023-05-16T03:57:13;74.95;;;42.40;;
32533;SDS011;18973;48.580;8.912;2023-05-16T03:59:38;77.28;;;42.33;;
32533;SDS011;18973;48.580;8.912;2023-05-16T04:02:04;82.68;;;43.58;;
32533;SDS011;18973;48.580;8.912;2023-05-16T04:04:30;76.90;;;42.53;;
32533;SDS011;18973;48.580;8.912;2023-05-16T04:06:56;77.47;;;42.95;;
32533;SDS011;18973;48.580;8.912;2023-05-16T04:09:22;75.22;;;42.13;;
32533;SDS011;18973;48.580;8.912;2023-05-16T04:11:47;83.63;;;45.00;;
32533;SDS011;18973;48.580;8.912;2023-05-16T04:14:13;80.78;;;43.28;;
32533;SDS011;18973;48.580;8.912;2023-05-16T04:16:39;76.25;;;42.08;;
32533;SDS011;18973;48.580;8.912;2023-05-16T04:19:05;81.93;;;45.90;;
32533;SDS011;18973;48.580;8.912;2023-05-16T04:21:31;80.03;;;45.60;;
32533;SDS011;18973;48.580;8.912;2023-05-16T04:23:57;79.97;;;44.42;;
32533;SDS011;18973;48.580;8.912;2023-05-16T04:26:23;80.90;;;44.05;;
32533;SDS011;18973;48.580;8.912;2023-05-16T04:28:49;80.32;;;45.70;;
32533;SDS011;18973;48.580;8.912;2023-05-16T04:31:15;74.22;;;42.05;;
32533;SDS011;18973;48.580;8.912;2023-05-16T04:33:41;72.10;;;43.00;;
32533;SDS011;18973;48.580;8.912;2023-05-16T04:36:07;78.88;;;44.22;;
32533;SDS011;18973;48.580;8.912;2023-05-16T04:38:33;78.75;;;43.13;;
32533;SDS011;18973;48.580;8.912;2023-05-16T04:40:58;75.53;;;43.33;;
32533;SDS011;18973;48.580;8.912;2023-05-16T04:43:25;80.20;;;44.40;;
32533;SDS011;18973;48.580;8.912;2023-05-16T04:45:51;77.28;;;43.63;;
32533;SDS011;18973;48.580;8.912;2023-05-16T04:48:19;74.53;;;42.10;;
32533;SDS011;18973;48.580;8.912;2023-05-16T04:50:45;70.10;;;41.45;;
32533;SDS011;18973;48.580;8.912;2023-05-16T04:53:11;84.57;;;43.10;;
32533;SDS011;18973;48.580;8.912;2023-05-16T04:55:39;75.22;;;42.78;;
32533;SDS011;18973;48.580;8.912;2023-05-16T04:58:05;73.63;;;40.30;;
32533;SDS011;18973;48.580;8.912;2023-05-16T05:00:30;68.47;;;41.72;;
32533;SDS011;18973;48.580;8.912;2023-05-16T05:02:56;74.72;;;44.53;;
32533;SDS011;18973;48.580;8.912;2023-05-16T05:05:22;68.45;;;39.40;;
32533;SDS011;18973;48.580;8.912;2023-05-16T05:07:48;70.10;;;40.70;;
32533;SDS011;18973;48.580;8.912;2023-05-16T05:10:13;68.85;;;42.33;;
32533;SDS011;18973;48.580;8.912;2023-05-16T05:12:39;76.32;;;42.10;;
32533;SDS011;18973;48.580;8.912;2023-05-16T05:15:05;73.07;;;42.95;;
32533;SDS011;18973;48.580;8.912;2023-05-16T05:17:32;70.70;;;41.00;;
32533;SDS011;18973;48.580;8.912;2023-05-16T05:19:57;67.85;;;40.13;;
32533;SDS011;18973;48.580;8.912;2023-05-16T05:22:23;73.03;;;40.35;;
32533;SDS011;18973;48.580;8.912;2023-05-16T05:24:49;70.82;;;41.53;;
32533;SDS011;18973;48.580;8.912;2023-05-16T05:27:15;63.13;;;38.05;;
32533;SDS011;18973;48.580;8.912;2023-05-16T05:29:40;72.47;;;39.33;;
32533;SDS011;18973;48.580;8.912;2023-05-16T05:32:06;64.03;;;40.83;;
32533;SDS011;18973;48.580;8.912;2023-05-16T05:34:32;60.67;;;39.15;;
32533;SDS011;18973;48.580;8.912;2023-05-16T05:36:58;68.40;;;40.15;;
32533;SDS011;18973;48.580;8.912;2023-05-16T05:39:24;71.03;;;39.90;;
32533;SDS011;18973;48.580;8.912;2023-05-16T05:41:50;69.15;;;41.28;;
32533;SDS011;18973;48.580;8.912;2023-05-16T05:44:16;65.80;;;40.03;;
32533;SDS011;18973;48.580;8.912;2023-05-16T05:46:41;65.68;;;40.03;;
32533;SDS011;18973;48.580;8.912;2023-05-16T05:49:07;67.32;;;40.85;;
32533;SDS011;18973;48.580;8.912;2023-05-16T05:51:33;68.18;;;39.05;;
32533;SDS011;18973;48.580;8.912;2023-05-16T05:53:59;63.92;;;39.95;;
32533;SDS011;18973;48.580;8.912;2023-05-16T05:56:26;65.25;;;38.13;;
32533;SDS011;18973;48.580;8.912;2023-05-16T05:58:52;64.28;;;39.55;;
32533;SDS011;18973;48.580;8.912;2023-05-16T06:01:18;66.03;;;38.60;;
32533;SDS011;18973;48.580;8.912;2023-05-16T06:03:45;67.20;;;39.38;;
32533;SDS011;18973;48.580;8.912;2023-05-16T06:06:11;64.05;;;38.08;;
32533;SDS011;18973;48.580;8.912;2023-05-16T06:08:38;62.03;;;36.28;;
32533;SDS011;18973;48.580;8.912;2023-05-16T06:11:06;61.90;;;37.58;;
32533;SDS011;18973;48.580;8.912;2023-05-16T06:13:31;58.90;;;36.92;;
32533;SDS011;18973;48.580;8.912;2023-05-16T06:15:57;65.18;;;37.25;;
32533;SDS011;18973;48.580;8.912;2023-05-16T06:18:23;61.78;;;39.50;;
32533;SDS011;18973;48.580;8.912;2023-05-16T06:20:48;63.35;;;38.60;;
32533;SDS011;18973;48.580;8.912;2023-05-16T06:23:14;63.95;;;37.88;;
32533;SDS011;18973;48.580;8.912;2023-05-16T06:25:40;57.28;;;36.05;;
32533;SDS011;18973;48.580;8.912;2023-05-16T06:28:06;61.38;;;37.90;;
32533;SDS011;18973;48.580;8.912;2023-05-16T06:30:32;61.70;;;38.00;;
32533;SDS011;18973;48.580;8.912;2023-05-16T06:32:57;62.13;;;37.85;;
32533;SDS011;18973;48.580;8.912;2023-05-16T06:35:23;62.20;;;36.95;;
32533;SDS011;18973;48.580;8.912;2023-05-16T06:37:49;60.80;;;35.95;;
32533;SDS011;18973;48.580;8.912;2023-05-16T06:40:15;63.42;;;37.42;;
32533;SDS011;18973;48.580;8.912;2023-05-16T06:42:40;59.53;;;37.30;;
32533;SDS011;18973;48.580;8.912;2023-05-16T06:45:06;56.42;;;34.97;;
32533;SDS011;18973;48.580;8.912;2023-05-16T06:47:32;56.75;;;36.25;;
32533;SDS011;18973;48.580;8.912;2023-05-16T06:49:58;61.33;;;35.88;;
32533;SDS011;18973;48.580;8.912;2023-05-16T06:52:24;57.75;;;35.30;;
32533;SDS011;18973;48.580;8.912;2023-05-16T06:54:51;55.65;;;35.00;;
32533;SDS011;18973;48.580;8.912;2023-05-16T06:57:17;52.05;;;33.10;;
32533;SDS011;18973;48.580;8.912;2023-05-16T06:59:42;52.17;;;34.80;;
32533;SDS011;18973;48.580;8.912;2023-05-16T07:02:08;57.97;;;38.05;;
32533;SDS011;18973;48.580;8.912;2023-05-16T07:04:34;59.03;;;34.65;;
32533;SDS011;18973;48.580;8.912;2023-05-16T07:07:01;56.08;;;33.50;;
32533;SDS011;18973;48.580;8.912;2023-05-16T07:09:28;53.28;;;33.72;;
32533;SDS011;18973;48.580;8.912;2023-05-16T07:11:57;48.05;;;32.67;;
32533;SDS011;18973;48.580;8.912;2023-05-16T07:14:22;48.13;;;30.95;;
32533;SDS011;18973;48.580;8.912;2023-05-16T07:16:48;52.20;;;31.80;;
32533;SDS011;18973;48.580;8.912;2023-05-16T07:19:14;69.05;;;44.08;;
32533;SDS011;18973;48.580;8.912;2023-05-16T07:21:39;69.90;;;42.70;;
32533;SDS011;18973;48.580;8.912;2023-05-16T07:24:05;50.13;;;33.38;;
32533;SDS011;18973;48.580;8.912;2023-05-16T07:26:31;46.95;;;29.90;;
32533;SDS011;18973;48.580;8.912;2023-05-16T07:28:57;45.47;;;28.30;;
32533;SDS011;18973;48.580;8.912;2023-05-16T07:31:22;49.00;;;28.52;;
32533;SDS011;18973;48.580;8.912;2023-05-16T07:33:48;44.55;;;29.48;;
32533;SDS011;18973;48.580;8.912;2023-05-16T07:36:14;39.65;;;25.67;;
32533;SDS011;18973;48.580;8.912;2023-05-16T07:38:40;36.70;;;25.10;;
32533;SDS011;18973;48.580;8.912;2023-05-16T07:41:06;40.17;;;24.98;;
32533;SDS011;18973;48.580;8.912;2023-05-16T07:43:32;36.35;;;24.23;;
32533;SDS011;18973;48.580;8.912;2023-05-16T07:45:59;32.25;;;21.27;;
32533;SDS011;18973;48.580;8.912;2023-05-16T07:48:25;29.50;;;18.52;;
32533;SDS011;18973;48.580;8.912;2023-05-16T07:50:51;25.60;;;18.20;;
32533;SDS011;18973;48.580;8.912;2023-05-16T07:53:17;29.23;;;18.95;;
32533;SDS011;18973;48.580;8.912;2023-05-16T07:55:43;29.38;;;18.80;;
32533;SDS011;18973;48.580;8.912;2023-05-16T07:58:09;26.20;;;17.90;;
32533;SDS011;18973;48.580;8.912;2023-05-16T08:00:34;28.20;;;17.70;;
32533;SDS011;18973;48.580;8.912;2023-05-16T08:03:00;25.52;;;15.98;;
32533;SDS011;18973;48.580;8.912;2023-05-16T08:05:26;28.33;;;17.38;;
32533;SDS011;18973;48.580;8.912;2023-05-16T08:07:51;25.40;;;16.88;;
32533;SDS011;18973;48.580;8.912;2023-05-16T08:10:17;24.38;;;16.25;;
32533;SDS011;18973;48.580;8.912;2023-05-16T08:12:43;25.38;;;16.80;;
32533;SDS011;18973;48.580;8.912;2023-05-16T08:15:09;26.25;;;16.88;;
32533;SDS011;18973;48.580;8.912;2023-05-16T08:17:35;24.42;;;16.70;;
32533;SDS011;18973;48.580;8.912;2023-05-16T08:20:01;21.92;;;14.98;;
32533;SDS011;18973;48.580;8.912;2023-05-16T08:22:28;28.02;;;16.40;;
32533;SDS011;18973;48.580;8.912;2023-05-16T08:24:53;21.20;;;15.73;;
32533;SDS011;18973;48.580;8.912;2023-05-16T08:27:22;25.08;;;16.67;;
32533;SDS011;18973;48.580;8.912;2023-05-16T08:29:48;22.30;;;15.52;;
32533;SDS011;18973;48.580;8.912;2023-05-16T08:32:14;22.65;;;15.15;;
32533;SDS011;18973;48.580;8.912;2023-05-16T08:34:40;19.70;;;13.60;;
32533;SDS011;18973;48.580;8.912;2023-05-16T08:37:06;18.65;;;13.20;;
32533;SDS011;18973;48.580;8.912;2023-05-16T08:39:32;19.38;;;13.43;;
32533;SDS011;18973;48.580;8.912;2023-05-16T08:41:58;17.40;;;11.85;;
32533;SDS011;18973;48.580;8.912;2023-05-16T08:44:24;16.67;;;11.93;;
32533;SDS011;18973;48.580;8.912;2023-05-16T08:46:51;19.60;;;12.95;;
32533;SDS011;18973;48.580;8.912;2023-05-16T08:49:17;20.88;;;13.73;;
32533;SDS011;18973;48.580;8.912;2023-05-16T08:51:45;19.42;;;13.27;;
32533;SDS011;18973;48.580;8.912;2023-05-16T08:54:11;21.48;;;14.27;;
32533;SDS011;18973;48.580;8.912;2023-05-16T08:56:38;21.20;;;14.50;;
32533;SDS011;18973;48.580;8.912;2023-05-16T08:59:06;21.92;;;14.63;;
32533;SDS011;18973;48.580;8.912;2023-05-16T09:01:32;21.05;;;14.95;;
32533;SDS011;18973;48.580;8.912;2023-05-16T09:03:58;24.33;;;17.50;;
32533;SDS011;18973;48.580;8.912;2023-05-16T09:06:25;23.55;;;15.13;;
32533;SDS011;18973;48.580;8.912;2023-05-16T09:08:54;23.55;;;17.00;;
32533;SDS011;18973;48.580;8.912;2023-05-16T09:11:20;25.42;;;17.48;;
32533;SDS011;18973;48.580;8.912;2023-05-16T09:13:46;32.58;;;20.92;;
32533;SDS011;18973;48.580;8.912;2023-05-16T09:16:17;26.60;;;18.73;;
32533;SDS011;18973;48.580;8.912;2023-05-16T09:21:37;26.25;;;17.80;;
32533;SDS011;18973;48.580;8.912;2023-05-16T09:24:05;30.30;;;20.75;;
32533;SDS011;18973;48.580;8.912;2023-05-16T09:26:32;32.67;;;19.13;;
32533;SDS011;18973;48.580;8.912;2023-05-16T09:28:59;29.20;;;20.88;;
32533;SDS011;18973;48.580;8.912;2023-05-16T09:31:26;35.45;;;21.17;;
32533;SDS011;18973;48.580;8.912;2023-05-16T09:34:00;31.23;;;20.80;;
32533;SDS011;18973;48.580;8.912;2023-05-16T09:36:26;29.95;;;19.48;;
32533;SDS011;18973;48.580;8.912;2023-05-16T09:38:52;34.70;;;21.65;;
32533;SDS011;18973;48.580;8.912;2023-05-16T09:41:20;33.55;;;20.92;;
32533;SDS011;18973;48.580;8.912;2023-05-16T09:43:46;30.50;;;20.60;;
32533;SDS011;18973;48.580;8.912;2023-05-16T09:46:14;34.38;;;21.73;;
32533;SDS011;18973;48.580;8.912;2023-05-16T09:48:40;32.33;;;20.70;;
32533;SDS011;18973;48.580;8.912;2023-05-16T09:51:10;35.58;;;23.85;;
32533;SDS011;18973;48.580;8.912;2023-05-16T09:53:37;33.83;;;22.75;;
32533;SDS011;18973;48.580;8.912;2023-05-16T09:56:09;32.33;;;21.50;;
32533;SDS011;18973;48.580;8.912;2023-05-16T09:58:37;32.83;;;21.77;;
32533;SDS011;18973;48.580;8.912;2023-05-16T10:01:04;32.45;;;22.08;;
32533;SDS011;18973;48.580;8.912;2023-05-16T10:03:32;32.67;;;21.90;;
32533;SDS011;18973;48.580;8.912;2023-05-16T10:06:00;31.60;;;21.20;;
32533;SDS011;18973;48.580;8.912;2023-05-16T10:08:27;34.63;;;22.20;;
32533;SDS011;18973;48.580;8.912;2023-05-16T10:10:55;29.20;;;19.73;;
32533;SDS011;18973;48.580;8.912;2023-05-16T10:13:22;32.38;;;20.83;;
32533;SDS011;18973;48.580;8.912;2023-05-16T10:15:50;29.30;;;20.65;;
32533;SDS011;18973;48.580;8.912;2023-05-16T10:18:20;30.15;;;18.90;;
32533;SDS011;18973;48.580;8.912;2023-05-16T10:20:48;31.55;;;19.58;;
32533;SDS011;18973;48.580;8.912;2023-05-16T10:23:18;30.65;;;18.88;;
32533;SDS011;18973;48.580;8.912;2023-05-16T10:25:46;24.63;;;18.65;;
32533;SDS011;18973;48.580;8.912;2023-05-16T10:28:14;25.50;;;18.35;;
32533;SDS011;18973;48.580;8.912;2023-05-16T10:30:41;29.75;;;18.02;;
32533;SDS011;18973;48.580;8.912;2023-05-16T10:33:15;29.55;;;18.17;;
32533;SDS011;18973;48.580;8.912;2023-05-16T10:35:42;27.48;;;16.98;;
32533;SDS011;18973;48.580;8.912;2023-05-16T10:38:09;26.35;;;17.70;;
32533;SDS011;18973;48.580;8.912;2023-05-16T10:40:37;27.00;;;17.73;;
32533;SDS011;18973;48.580;8.912;2023-05-16T10:43:05;29.05;;;17.00;;
32533;SDS011;18973;48.580;8.912;2023-05-16T10:45:32;23.70;;;17.30;;
32533;SDS011;18973;48.580;8.912;2023-05-16T10:47:59;27.00;;;17.67;;
32533;SDS011;18973;48.580;8.912;2023-05-16T10:55:48;23.30;;;15.27;;
32533;SDS011;18973;48.580;8.912;2023-05-16T11:11:38;20.90;;;12.73;;
32533;SDS011;18973;48.580;8.912;2023-05-16T11:14:04;17.23;;;11.98;;
32533;SDS011;18973;48.580;8.912;2023-05-16T11:16:30;16.25;;;11.02;;
32533;SDS011;18973;48.580;8.912;2023-05-16T11:19:05;18.83;;;11.48;;
32533;SDS011;18973;48.580;8.912;2023-05-16T11:24:32;14.23;;;10.73;;
32533;SDS011;18973;48.580;8.912;2023-05-16T11:26:59;15.90;;;12.10;;
32533;SDS011;18973;48.580;8.912;2023-05-16T11:29:27;13.38;;;8.50;;
32533;SDS011;18973;48.580;8.912;2023-05-16T11:31:53;11.82;;;8.43;;
32533;SDS011;18973;48.580;8.912;2023-05-16T11:34:18;11.45;;;7.50;;
32533;SDS011;18973;48.580;8.912;2023-05-16T11:36:44;11.88;;;7.20;;
32533;SDS011;18973;48.580;8.912;2023-05-16T11:39:12;12.98;;;7.80;;
32533;SDS011;18973;48.580;8.912;2023-05-16T11:41:37;11.98;;;7.97;;
32533;SDS011;18973;48.580;8.912;2023-05-16T11:44:03;15.10;;;9.88;;
32533;SDS011;18973;48.580;8.912;2023-05-16T11:46:32;15.10;;;9.90;;
32533;SDS011;18973;48.580;8.912;2023-05-16T11:48:58;7.55;;;5.72;;
32533;SDS011;18973;48.580;8.912;2023-05-16T11:51:24;9.95;;;6.20;;
32533;SDS011;18973;48.580;8.912;2023-05-16T11:53:50;10.65;;;6.10;;
32533;SDS011;18973;48.580;8.912;2023-05-16T11:56:16;8.68;;;6.50;;
32533;SDS011;18973;48.580;8.912;2023-05-16T11:58:42;9.80;;;7.07;;
32533;SDS011;18973;48.580;8.912;2023-05-16T12:01:09;8.35;;;6.90;;
32533;SDS011;18973;48.580;8.912;2023-05-16T12:03:35;11.07;;;8.60;;
32533;SDS011;18973;48.580;8.912;2023-05-16T12:06:02;15.60;;;10.25;;
32533;SDS011;18973;48.580;8.912;2023-05-16T12:08:28;14.10;;;9.63;;
32533;SDS011;18973;48.580;8.912;2023-05-16T12:10:54;15.63;;;9.13;;
32533;SDS011;18973;48.580;8.912;2023-05-16T12:13:21;16.25;;;9.52;;
32533;SDS011;18973;48.580;8.912;2023-05-16T12:15:48;13.52;;;9.43;;
32533;SDS011;18973;48.580;8.912;2023-05-16T12:18:18;12.15;;;9.20;;
32533;SDS011;18973;48.580;8.912;2023-05-16T12:20:45;14.60;;;10.38;;
32533;SDS011;18973;48.580;8.912;2023-05-16T12:23:11;16.30;;;9.38;;
32533;SDS011;18973;48.580;8.912;2023-05-16T12:25:38;13.63;;;9.98;;
32533;SDS011;18973;48.580;8.912;2023-05-16T12:28:13;13.95;;;9.23;;
32533;SDS011;18973;48.580;8.912;2023-05-16T12:30:40;11.73;;;8.60;;
32533;SDS011;18973;48.580;8.912;2023-05-16T12:33:09;15.32;;;9.38;;
32533;SDS011;18973;48.580;8.912;2023-05-16T12:35:37;11.68;;;8.68;;
32533;SDS011;18973;48.580;8.912;2023-05-16T12:38:08;13.18;;;8.93;;
32533;SDS011;18973;48.580;8.912;2023-05-16T12:40:36;13.55;;;8.48;;
32533;SDS011;18973;48.580;8.912;2023-05-16T12:43:03;9.18;;;7.50;;
32533;SDS011;18973;48.580;8.912;2023-05-16T12:45:36;13.30;;;6.97;;
32533;SDS011;18973;48.580;8.912;2023-05-16T12:48:10;9.85;;;5.85;;
32533;SDS011;18973;48.580;8.912;2023-05-16T12:50:38;7.03;;;5.40;;
32533;SDS011;18973;48.580;8.912;2023-05-16T12:53:04;5.90;;;4.95;;
32533;SDS011;18973;48.580;8.912;2023-05-16T12:55:34;5.65;;;4.88;;
32533;SDS011;18973;48.580;8.912;2023-05-16T12:58:00;7.93;;;4.35;;
32533;SDS011;18973;48.580;8.912;2023-05-16T13:00:26;5.15;;;3.60;;
32533;SDS011;18973;48.580;8.912;2023-05-16T13:02:52;5.18;;;3.08;;
32533;SDS011;18973;48.580;8.912;2023-05-16T13:05:18;6.90;;;3.67;;
32533;SDS011;18973;48.580;8.912;2023-05-16T13:07:46;3.33;;;2.78;;
32533;SDS011;18973;48.580;8.912;2023-05-16T13:10:11;4.57;;;4.00;;
32533;SDS011;18973;48.580;8.912;2023-05-16T13:12:38;8.73;;;6.22;;
32533;SDS011;18973;48.580;8.912;2023-05-16T13:15:05;15.75;;;10.85;;
32533;SDS011;18973;48.580;8.912;2023-05-16T13:17:35;13.93;;;10.07;;
32533;SDS011;18973;48.580;8.912;2023-05-16T13:20:02;7.75;;;5.07;;
32533;SDS011;18973;48.580;8.912;2023-05-16T13:22:41;6.40;;;4.32;;
32533;SDS011;18973;48.580;8.912;2023-05-16T13:25:07;7.47;;;4.50;;
32533;SDS011;18973;48.580;8.912;2023-05-16T13:27:34;4.93;;;4.47;;
32533;SDS011;18973;48.580;8.912;2023-05-16T13:30:00;6.03;;;4.07;;
32533;SDS011;18973;48.580;8.912;2023-05-16T13:32:27;5.30;;;4.63;;
32533;SDS011;18973;48.580;8.912;2023-05-16T13:34:52;5.07;;;4.47;;
32533;SDS011;18973;48.580;8.912;2023-05-16T13:37:19;8.00;;;5.43;;
32533;SDS011;18973;48.580;8.912;2023-05-16T13:39:44;7.43;;;4.57;;
32533;SDS011;18973;48.580;8.912;2023-05-16T13:42:10;7.40;;;4.50;;
32533;SDS011;18973;48.580;8.912;2023-05-16T13:44:36;4.65;;;3.60;;
32533;SDS011;18973;48.580;8.912;2023-05-16T13:47:01;6.15;;;4.32;;
32533;SDS011;18973;48.580;8.912;2023-05-16T13:49:27;6.32;;;3.85;;
32533;SDS011;18973;48.580;8.912;2023-05-16T13:51:53;8.27;;;3.80;;
32533;SDS011;18973;48.580;8.912;2023-05-16T13:54:19;4.88;;;4.00;;
32533;SDS011;18973;48.580;8.912;2023-05-16T13:56:46;4.30;;;3.67;;
32533;SDS011;18973;48.580;8.912;2023-05-16T13:59:12;5.93;;;3.53;;
32533;SDS011;18973;48.580;8.912;2023-05-16T14:01:38;5.80;;;3.33;;
32533;SDS011;18973;48.580;8.912;2023-05-16T14:04:04;6.10;;;3.17;;
32533;SDS011;18973;48.580;8.912;2023-05-16T14:06:29;6.00;;;3.90;;
32533;SDS011;18973;48.580;8.912;2023-05-16T14:08:55;4.72;;;3.20;;
32533;SDS011;18973;48.580;8.912;2023-05-16T14:11:21;6.30;;;3.25;;
32533;SDS011;18973;48.580;8.912;2023-05-16T14:13:51;4.50;;;3.33;;
32533;SDS011;18973;48.580;8.912;2023-05-16T14:16:17;5.43;;;3.28;;
32533;SDS011;18973;48.580;8.912;2023-05-16T14:18:43;6.25;;;3.25;;
32533;SDS011;18973;48.580;8.912;2023-05-16T14:21:08;3.38;;;3.05;;
32533;SDS011;18973;48.580;8.912;2023-05-16T14:23:34;5.32;;;3.10;;
32533;SDS011;18973;48.580;8.912;2023-05-16T14:26:00;7.32;;;2.90;;
32533;SDS011;18973;48.580;8.912;2023-05-16T14:28:26;5.50;;;3.15;;
32533;SDS011;18973;48.580;8.912;2023-05-16T14:30:52;4.95;;;3.30;;
32533;SDS011;18973;48.580;8.912;2023-05-16T14:33:18;6.28;;;2.67;;
32533;SDS011;18973;48.580;8.912;2023-05-16T14:35:44;8.75;;;3.13;;
32533;SDS011;18973;48.580;8.912;2023-05-16T14:38:09;7.95;;;3.03;;
32533;SDS011;18973;48.580;8.912;2023-05-16T14:40:35;2.85;;;2.55;;
32533;SDS011;18973;48.580;8.912;2023-05-16T14:43:01;10.23;;;2.90;;
32533;SDS011;18973;48.580;8.912;2023-05-16T14:45:28;7.03;;;3.72;;
32533;SDS011;18973;48.580;8.912;2023-05-16T14:47:54;7.25;;;3.45;;
32533;SDS011;18973;48.580;8.912;2023-05-16T14:50:20;5.40;;;2.50;;
32533;SDS011;18973;48.580;8.912;2023-05-16T14:52:45;3.55;;;2.40;;
32533;SDS011;18973;48.580;8.912;2023-05-16T14:55:11;3.95;;;2.50;;
32533;SDS011;18973;48.580;8.912;2023-05-16T14:57:37;6.30;;;2.80;;
32533;SDS011;18973;48.580;8.912;2023-05-16T15:00:03;7.47;;;2.80;;
32533;SDS011;18973;48.580;8.912;2023-05-16T15:02:29;3.88;;;2.70;;